createdAt,value
2024-02-12T00:00:20.324Z,7.00
2024-02-12T00:02:49.328Z,7.00
2024-02-12T00:05:18.237Z,7.00
2024-02-12T00:07:46.453Z,7.10
2024-02-12T00:10:16.194Z,7.00
2024-02-12T00:12:44.300Z,7.00
2024-02-12T00:15:13.304Z,7.00
2024-02-12T00:17:42.250Z,7.00
2024-02-12T00:20:13.989Z,7.00
2024-02-12T00:22:41.865Z,7.00
2024-02-12T00:25:12.632Z,7.00
2024-02-12T00:27:42.169Z,6.90
2024-02-12T00:30:11.596Z,7.00
2024-02-12T00:32:39.946Z,7.00
2024-02-12T00:35:08.954Z,6.90
2024-02-12T00:37:36.964Z,7.00
2024-02-12T00:40:10.141Z,7.00
2024-02-12T00:42:39.575Z,6.90
2024-02-12T00:45:11.885Z,6.90
2024-02-12T00:47:41.466Z,6.90
2024-02-12T00:50:11.102Z,6.90
2024-02-12T00:52:39.849Z,6.90
2024-02-12T00:55:09.693Z,6.90
2024-02-12T00:57:37.948Z,7.00
2024-02-12T01:00:14.064Z,6.90
2024-02-12T01:02:43.990Z,6.90
2024-02-12T01:05:12.529Z,6.80
2024-02-12T01:07:42.604Z,6.80
2024-02-12T01:10:11.594Z,6.80
2024-02-12T01:12:41.058Z,6.80
2024-02-12T01:15:11.060Z,6.80
2024-02-12T01:17:44.635Z,6.80
2024-02-12T01:20:19.790Z,6.80
2024-02-12T01:22:49.394Z,6.80
2024-02-12T01:25:18.995Z,6.80
2024-02-12T01:27:47.463Z,6.80
2024-02-12T01:30:16.436Z,6.80
2024-02-12T01:32:45.298Z,6.70
2024-02-12T01:35:13.736Z,6.80
2024-02-12T01:37:43.489Z,6.70
2024-02-12T01:40:12.873Z,6.60
2024-02-12T01:42:41.236Z,6.60
2024-02-12T01:45:15.218Z,6.50
2024-02-12T01:47:47.126Z,6.40
2024-02-12T01:50:16.778Z,6.40
2024-02-12T01:52:50.845Z,6.40
2024-02-12T01:55:21.600Z,6.40
2024-02-12T01:57:51.992Z,6.40
2024-02-12T02:00:23.441Z,6.50
2024-02-12T02:02:52.348Z,6.50
2024-02-12T02:05:20.475Z,6.50
2024-02-12T02:07:54.186Z,6.50
2024-02-12T02:10:24.383Z,6.50
2024-02-12T02:12:54.695Z,6.40
2024-02-12T02:15:23.034Z,6.40
2024-02-12T02:17:52.147Z,6.40
2024-02-12T02:20:24.979Z,6.40
2024-02-12T02:22:55.620Z,6.40
2024-02-12T02:25:25.693Z,6.40
2024-02-12T02:27:53.698Z,6.50
2024-02-12T02:30:22.347Z,6.50
2024-02-12T02:32:51.500Z,6.60
2024-02-12T02:35:19.919Z,6.60
2024-02-12T02:37:48.004Z,6.60
2024-02-12T02:40:16.250Z,6.60
2024-02-12T02:42:48.070Z,6.60
2024-02-12T02:45:16.459Z,6.50
2024-02-12T02:47:44.922Z,6.60
2024-02-12T02:50:13.334Z,6.60
2024-02-12T02:52:41.976Z,6.60
2024-02-12T02:55:12.734Z,6.60
2024-02-12T02:57:41.213Z,6.60
2024-02-12T03:00:12.213Z,6.60
2024-02-12T03:02:40.514Z,6.60
2024-02-12T03:05:09.950Z,6.60
2024-02-12T03:07:38.739Z,6.60
2024-02-12T03:10:10.775Z,6.60
2024-02-12T03:12:39.240Z,6.60
2024-02-12T03:15:12.693Z,6.60
2024-02-12T03:17:44.802Z,6.50
2024-02-12T03:20:14.092Z,6.60
2024-02-12T03:22:43.998Z,6.50
2024-02-12T03:25:13.228Z,6.50
2024-02-12T03:27:42.377Z,6.50
2024-02-12T03:30:11.458Z,6.40
2024-02-12T03:32:40.604Z,6.40
2024-02-12T03:35:11.186Z,6.40
2024-02-12T03:37:39.525Z,6.40
2024-02-12T03:40:14.417Z,6.40
2024-02-12T03:42:42.711Z,6.40
2024-02-12T03:45:12.810Z,6.30
2024-02-12T03:47:41.385Z,6.30
2024-02-12T03:50:34.000Z,6.30
2024-02-12T03:53:22.377Z,6.30
2024-02-12T03:56:16.385Z,6.30
2024-02-12T03:59:04.578Z,6.30
2024-02-12T04:01:32.551Z,6.30
2024-02-12T04:04:00.691Z,6.30
2024-02-12T04:06:35.839Z,6.30
2024-02-12T04:09:04.479Z,6.30
2024-02-12T04:11:33.022Z,6.30
2024-02-12T04:14:01.798Z,6.30
2024-02-12T04:16:33.357Z,6.40
2024-02-12T04:19:01.569Z,6.40
2024-02-12T04:21:32.585Z,6.30
2024-02-12T04:24:01.924Z,6.30
2024-02-12T04:26:30.053Z,6.30
2024-02-12T04:28:58.750Z,6.30
2024-02-12T04:31:28.845Z,6.30
2024-02-12T04:33:57.002Z,6.30
2024-02-12T04:36:25.354Z,6.20
2024-02-12T04:38:54.782Z,6.20
2024-02-12T04:41:22.944Z,6.20
2024-02-12T04:43:50.915Z,6.20
2024-02-12T04:46:19.158Z,6.20
2024-02-12T04:48:47.257Z,6.30
2024-02-12T04:51:16.391Z,6.30
2024-02-12T04:53:44.769Z,6.20
2024-02-12T04:56:14.400Z,6.20
2024-02-12T04:58:42.836Z,6.10
2024-02-12T05:01:10.916Z,6.10
2024-02-12T05:03:40.110Z,6.10
2024-02-12T05:06:09.288Z,6.10
2024-02-12T05:08:37.464Z,6.10
2024-02-12T05:11:06.053Z,6.10
2024-02-12T05:13:36.959Z,6.00
2024-02-12T05:16:08.390Z,6.00
2024-02-12T05:18:53.989Z,6.10
2024-02-12T05:21:45.204Z,6.00
2024-02-12T05:24:13.246Z,6.00
2024-02-12T05:26:41.675Z,5.90
2024-02-12T05:29:11.404Z,5.90
2024-02-12T05:31:39.504Z,5.90
2024-02-12T05:34:08.215Z,5.80
2024-02-12T05:36:36.446Z,5.80
2024-02-12T05:39:04.931Z,5.70
2024-02-12T05:41:33.051Z,5.60
2024-02-12T05:44:01.547Z,5.60
2024-02-12T05:46:30.959Z,5.60
2024-02-12T05:48:59.739Z,5.60
2024-02-12T05:51:27.997Z,5.60
2024-02-12T05:53:56.010Z,5.60
2024-02-12T05:56:24.082Z,5.50
2024-02-12T05:58:52.120Z,5.50
2024-02-12T06:01:20.238Z,5.40
2024-02-12T06:03:49.718Z,5.40
2024-02-12T06:06:18.469Z,5.40
2024-02-12T06:08:46.728Z,5.40
2024-02-12T06:11:14.793Z,5.40
2024-02-12T06:13:42.805Z,5.40
2024-02-12T06:16:10.825Z,5.40
2024-02-12T06:18:38.824Z,5.50
2024-02-12T06:21:08.778Z,5.50
2024-02-12T06:23:38.438Z,5.50
2024-02-12T06:26:07.005Z,5.50
2024-02-12T06:28:35.939Z,5.50
2024-02-12T06:31:03.987Z,5.50
2024-02-12T06:33:32.103Z,5.60
2024-02-12T06:36:03.041Z,5.60
2024-02-12T06:38:32.492Z,5.50
2024-02-12T06:41:02.021Z,5.50
2024-02-12T06:43:30.182Z,5.40
2024-02-12T06:45:58.312Z,5.40
2024-02-12T06:48:26.418Z,5.40
2024-02-12T06:50:54.650Z,5.40
2024-02-12T06:53:22.894Z,5.50
2024-02-12T06:55:52.381Z,5.50
2024-02-12T06:58:20.488Z,5.50
2024-02-12T07:00:53.020Z,5.50
2024-02-12T07:03:21.191Z,5.60
2024-02-12T07:05:49.360Z,5.70
2024-02-12T07:08:20.936Z,5.70
2024-02-12T07:10:49.708Z,5.70
2024-02-12T07:13:19.780Z,5.70
2024-02-12T07:15:47.961Z,5.70
2024-02-12T07:18:16.074Z,5.70
2024-02-12T07:20:44.276Z,5.70
2024-02-12T07:23:12.398Z,5.80
2024-02-12T07:25:40.432Z,5.70
2024-02-12T07:28:09.351Z,5.80
2024-02-12T07:30:40.610Z,5.90
2024-02-12T07:33:08.888Z,6.00
2024-02-12T07:35:37.072Z,6.10
2024-02-12T07:38:06.949Z,6.20
2024-02-12T07:40:35.217Z,6.30
2024-02-12T07:43:03.358Z,6.20
2024-02-12T07:45:33.508Z,6.20
2024-02-12T07:48:13.616Z,6.20
2024-02-12T07:50:41.913Z,6.10
2024-02-12T07:53:10.024Z,6.20
2024-02-12T07:55:38.125Z,6.30
2024-02-12T07:58:06.549Z,6.40
2024-02-12T08:00:34.679Z,6.40
2024-02-12T08:03:02.984Z,6.40
2024-02-12T08:05:36.389Z,6.40
2024-02-12T08:08:05.419Z,6.40
2024-02-12T08:10:33.485Z,6.30
2024-02-12T08:13:02.270Z,6.20
2024-02-12T08:15:31.419Z,6.10
2024-02-12T08:17:59.835Z,6.20
2024-02-12T08:20:28.524Z,6.20
2024-02-12T08:22:58.171Z,6.20
2024-02-12T08:25:27.063Z,6.10
2024-02-12T08:27:56.427Z,6.20
2024-02-12T08:30:24.613Z,6.20
2024-02-12T08:32:52.776Z,6.30
2024-02-12T08:35:21.884Z,6.40
2024-02-12T08:37:51.781Z,6.40
2024-02-12T08:40:21.448Z,6.50
2024-02-12T08:42:51.638Z,6.70
2024-02-12T08:45:19.902Z,6.90
2024-02-12T08:47:49.012Z,7.10
2024-02-12T08:50:18.152Z,7.30
2024-02-12T08:52:46.334Z,7.60
2024-02-12T08:55:14.992Z,7.80
2024-02-12T08:57:45.955Z,7.90
2024-02-12T09:00:16.596Z,7.90
2024-02-12T09:02:44.872Z,8.00
2024-02-12T09:05:13.324Z,8.10
2024-02-12T09:07:41.804Z,8.00
2024-02-12T09:10:13.450Z,7.80
2024-02-12T09:15:17.656Z,7.60
2024-02-12T09:17:46.933Z,7.70
2024-02-12T09:20:16.058Z,7.80
2024-02-12T09:22:44.451Z,7.80
2024-02-12T09:25:13.803Z,7.80
2024-02-12T09:27:47.311Z,7.60
2024-02-12T09:30:18.761Z,7.50
2024-02-12T09:32:49.195Z,7.60
2024-02-12T09:35:20.297Z,7.60
2024-02-12T09:37:50.959Z,7.60
2024-02-12T09:40:22.910Z,7.60
2024-02-12T09:42:55.263Z,7.60
2024-02-12T09:45:26.490Z,7.70
2024-02-12T09:47:56.217Z,7.80
2024-02-12T09:50:24.678Z,8.00
2024-02-12T09:52:52.969Z,8.00
2024-02-12T09:55:23.367Z,8.10
2024-02-12T09:57:52.022Z,8.10
2024-02-12T10:00:23.921Z,8.10
2024-02-12T10:02:56.796Z,8.20
2024-02-12T10:05:26.096Z,8.10
2024-02-12T10:07:54.333Z,8.20
2024-02-12T10:10:22.460Z,8.40
2024-02-12T10:12:54.546Z,8.40
2024-02-12T10:15:24.655Z,8.40
2024-02-12T10:17:56.531Z,8.50
2024-02-12T10:20:25.258Z,8.50
2024-02-12T10:22:53.582Z,8.60
2024-02-12T10:25:22.429Z,8.80
2024-02-12T10:27:50.797Z,8.90
2024-02-12T10:30:20.188Z,8.90
2024-02-12T10:32:50.934Z,8.90
2024-02-12T10:35:24.652Z,8.90
2024-02-12T10:37:53.931Z,8.80
2024-02-12T10:40:30.445Z,8.80
2024-02-12T10:43:04.733Z,8.70
2024-02-12T10:45:33.352Z,8.60
2024-02-12T10:48:03.550Z,8.50
2024-02-12T10:50:36.787Z,8.50
2024-02-12T10:53:07.932Z,8.60
2024-02-12T10:55:39.996Z,8.90
2024-02-12T10:58:09.038Z,8.80
2024-02-12T11:00:45.637Z,8.90
2024-02-12T11:03:17.638Z,9.20
2024-02-12T11:05:47.893Z,9.30
2024-02-12T11:08:20.170Z,9.20
2024-02-12T11:10:51.327Z,9.00
2024-02-12T11:13:20.613Z,8.90
2024-02-12T11:15:52.251Z,8.90
2024-02-12T11:18:24.151Z,9.00
2024-02-12T11:20:59.129Z,9.00
2024-02-12T11:23:28.196Z,9.00
2024-02-12T11:25:58.087Z,9.20
2024-02-12T11:28:29.603Z,9.10
2024-02-12T11:30:57.974Z,9.20
2024-02-12T11:33:27.592Z,9.20
2024-02-12T11:36:11.628Z,9.20
2024-02-12T11:38:40.176Z,9.30
2024-02-12T11:41:08.440Z,9.40
2024-02-12T11:43:36.519Z,9.40
2024-02-12T11:46:04.692Z,9.60
2024-02-12T11:48:32.959Z,9.50
2024-02-12T11:51:01.309Z,9.60
2024-02-12T11:53:30.850Z,9.50
2024-02-12T11:56:01.106Z,9.70
2024-02-12T11:58:30.324Z,9.80
2024-02-12T12:01:00.000Z,9.70
2024-02-12T12:03:29.279Z,9.90
2024-02-12T12:05:57.970Z,9.70
2024-02-12T12:08:27.189Z,9.70
2024-02-12T12:11:06.660Z,9.60
2024-02-12T12:13:35.152Z,9.50
2024-02-12T12:16:05.285Z,9.50
2024-02-12T12:18:34.152Z,9.30
2024-02-12T12:21:02.383Z,9.10
2024-02-12T12:23:30.842Z,8.90
2024-02-12T12:26:01.290Z,8.70
2024-02-12T12:28:30.109Z,8.40
2024-02-12T12:30:58.268Z,8.20
2024-02-12T12:33:26.418Z,8.10
2024-02-12T12:35:55.940Z,8.10
2024-02-12T12:38:24.288Z,8.10
2024-02-12T12:40:52.584Z,8.30
2024-02-12T12:43:23.542Z,8.40
2024-02-12T12:45:53.992Z,8.60
2024-02-12T12:48:23.885Z,8.80
2024-02-12T12:50:59.470Z,8.90
2024-02-12T12:53:30.134Z,9.00
2024-02-12T12:55:59.206Z,9.10
2024-02-12T12:58:28.850Z,9.20
2024-02-12T13:00:57.127Z,9.40
2024-02-12T13:03:25.373Z,9.30
2024-02-12T13:05:53.933Z,9.30
2024-02-12T13:08:24.667Z,9.40
2024-02-12T13:10:53.460Z,9.40
2024-02-12T13:13:23.413Z,9.30
2024-02-12T13:15:54.165Z,9.30
2024-02-12T13:18:27.778Z,9.20
2024-02-12T13:20:56.277Z,9.30
2024-02-12T13:23:25.460Z,9.40
2024-02-12T13:25:53.692Z,9.20
2024-02-12T13:28:22.638Z,9.20
2024-02-12T13:30:53.897Z,9.30
2024-02-12T13:33:23.087Z,9.30
2024-02-12T13:35:52.458Z,9.30
2024-02-12T13:38:22.547Z,9.20
2024-02-12T13:40:52.886Z,9.10
2024-02-12T13:43:22.761Z,9.10
2024-02-12T13:45:53.833Z,9.00
2024-02-12T13:48:23.207Z,8.90
2024-02-12T13:50:53.486Z,8.90
2024-02-12T13:53:23.202Z,8.90
2024-02-12T13:55:52.440Z,8.80
2024-02-12T13:58:23.544Z,8.70
2024-02-12T14:03:26.813Z,8.40
2024-02-12T14:05:56.188Z,8.50
2024-02-12T14:08:24.932Z,8.50
2024-02-12T14:10:54.540Z,8.60
2024-02-12T14:13:25.444Z,8.80
2024-02-12T14:16:05.966Z,8.70
2024-02-12T14:18:39.045Z,8.70
2024-02-12T14:21:10.323Z,8.70
2024-02-12T14:23:39.817Z,8.80
2024-02-12T14:26:10.647Z,8.80
2024-02-12T14:28:38.848Z,8.90
2024-02-12T14:31:12.207Z,9.00
2024-02-12T14:33:42.567Z,8.90
2024-02-12T14:36:11.145Z,8.80
2024-02-12T14:38:40.198Z,8.70
2024-02-12T14:41:08.431Z,8.70
2024-02-12T14:43:37.042Z,8.70
2024-02-12T14:46:05.306Z,8.60
2024-02-12T14:48:35.146Z,8.50
2024-02-12T14:51:03.291Z,8.50
2024-02-12T14:53:33.221Z,8.60
2024-02-12T14:56:01.448Z,8.50
2024-02-12T14:58:29.675Z,8.50
2024-02-12T15:00:58.031Z,8.50
2024-02-12T15:03:27.027Z,8.50
2024-02-12T15:05:56.848Z,8.40
2024-02-12T15:08:25.107Z,8.40
2024-02-12T15:10:53.272Z,8.30
2024-02-12T15:13:21.770Z,8.30
2024-02-12T15:15:50.493Z,8.30
2024-02-12T15:18:19.022Z,8.40
2024-02-12T15:20:47.826Z,8.40
2024-02-12T15:23:17.491Z,8.40
2024-02-12T15:25:45.773Z,8.50
2024-02-12T15:28:16.086Z,8.50
2024-02-12T15:30:46.492Z,8.40
2024-02-12T15:33:15.776Z,8.30
2024-02-12T15:35:44.179Z,8.20
2024-02-12T15:38:17.001Z,8.20
2024-02-12T15:40:46.983Z,8.20
2024-02-12T15:43:15.949Z,8.10
2024-02-12T15:45:44.719Z,8.00
2024-02-12T15:48:19.093Z,8.10
2024-02-12T15:50:50.605Z,8.00
2024-02-12T15:53:22.619Z,8.00
2024-02-12T15:55:57.662Z,8.00
2024-02-12T15:58:26.980Z,7.90
2024-02-12T16:00:55.704Z,7.90
2024-02-12T16:03:24.322Z,7.80
2024-02-12T16:06:12.699Z,7.80
2024-02-12T16:08:42.517Z,7.90
2024-02-12T16:11:17.175Z,7.80
2024-02-12T16:13:48.370Z,7.80
2024-02-12T16:16:20.153Z,7.70
2024-02-12T16:18:49.513Z,7.70
2024-02-12T16:21:17.797Z,7.70
2024-02-12T16:23:47.356Z,7.60
2024-02-12T16:26:18.574Z,7.60
2024-02-12T16:28:47.818Z,7.60
2024-02-12T16:31:15.919Z,7.50
2024-02-12T16:33:44.147Z,7.40
2024-02-12T16:36:14.426Z,7.30
2024-02-12T16:38:42.788Z,7.20
2024-02-12T16:41:10.941Z,7.10
2024-02-12T16:43:40.526Z,7.10
2024-02-12T16:46:09.060Z,7.00
2024-02-12T16:48:41.160Z,6.90
2024-02-12T16:51:09.945Z,6.80
2024-02-12T16:53:38.570Z,6.70
2024-02-12T16:56:07.612Z,6.60
2024-02-12T16:58:35.825Z,6.60
2024-02-12T17:01:06.944Z,6.60
2024-02-12T17:03:35.271Z,6.60
2024-02-12T17:06:03.796Z,6.60
2024-02-12T17:08:32.433Z,6.50
2024-02-12T17:11:01.938Z,6.50
2024-02-12T17:13:30.858Z,6.50
2024-02-12T17:15:59.242Z,6.50
2024-02-12T17:18:29.898Z,6.40
2024-02-12T17:20:59.282Z,6.40
2024-02-12T17:23:27.564Z,6.40
2024-02-12T17:25:55.662Z,6.40
2024-02-12T17:28:23.942Z,6.30
2024-02-12T17:30:52.798Z,6.30
2024-02-12T17:33:21.194Z,6.30
2024-02-12T17:35:51.180Z,6.20
2024-02-12T17:38:19.555Z,6.20
2024-02-12T17:40:47.882Z,6.10
2024-02-12T17:43:16.125Z,6.00
2024-02-12T17:45:44.463Z,6.00
2024-02-12T17:48:13.558Z,5.90
2024-02-12T17:50:41.801Z,5.90
2024-02-12T17:53:11.318Z,5.90
2024-02-12T17:55:41.533Z,5.80
2024-02-12T17:58:10.067Z,5.80
2024-02-12T18:00:39.668Z,5.80
2024-02-12T18:03:08.745Z,5.80
2024-02-12T18:05:39.960Z,5.80
2024-02-12T18:08:11.106Z,5.80
2024-02-12T18:10:40.470Z,5.70
2024-02-12T18:13:09.337Z,5.70
2024-02-12T18:15:39.275Z,5.70
2024-02-12T18:18:07.882Z,5.70
2024-02-12T18:20:37.333Z,5.70
2024-02-12T18:23:06.088Z,5.60
2024-02-12T18:25:35.634Z,5.70
2024-02-12T18:28:06.732Z,5.60
2024-02-12T18:30:35.140Z,5.60
2024-02-12T18:33:05.058Z,5.60
2024-02-12T18:35:33.741Z,5.60
2024-02-12T18:38:03.505Z,5.60
2024-02-12T18:40:31.861Z,5.50
2024-02-12T18:43:01.693Z,5.50
2024-02-12T18:45:31.839Z,5.40
2024-02-12T18:48:00.823Z,5.40
2024-02-12T18:50:29.994Z,5.40
2024-02-12T18:52:58.966Z,5.40
2024-02-12T18:55:27.246Z,5.40
2024-02-12T18:57:55.499Z,5.40
2024-02-12T19:00:25.227Z,5.50
2024-02-12T19:02:53.551Z,5.50
2024-02-12T19:05:23.677Z,5.50
2024-02-12T19:07:52.197Z,5.50
2024-02-12T19:10:20.486Z,5.50
2024-02-12T19:12:50.572Z,5.50
2024-02-12T19:15:19.379Z,5.50
2024-02-12T19:17:49.664Z,5.50
2024-02-12T19:20:18.334Z,5.50
2024-02-12T19:22:46.634Z,5.50
2024-02-12T19:25:15.390Z,5.50
2024-02-12T19:27:44.092Z,5.50
2024-02-12T19:30:15.205Z,5.50
2024-02-12T19:32:44.789Z,5.50
2024-02-12T19:35:14.501Z,5.50
2024-02-12T19:37:43.046Z,5.50
2024-02-12T19:40:16.059Z,5.50
2024-02-12T19:42:47.078Z,5.50
2024-02-12T19:45:16.278Z,5.50
2024-02-12T19:47:45.042Z,5.50
2024-02-12T19:50:15.768Z,5.50
2024-02-12T19:52:44.000Z,5.60
2024-02-12T19:55:17.293Z,5.60
2024-02-12T19:57:48.521Z,5.60
2024-02-12T20:00:18.307Z,5.50
2024-02-12T20:02:47.638Z,5.60
2024-02-12T20:05:19.964Z,5.50
2024-02-12T20:07:48.240Z,5.50
2024-02-12T20:10:17.234Z,5.50
2024-02-12T20:12:45.691Z,5.50
2024-02-12T20:15:15.305Z,5.50
2024-02-12T20:17:48.558Z,5.50
2024-02-12T20:20:18.801Z,5.50
2024-02-12T20:22:47.148Z,5.50
2024-02-12T20:25:15.649Z,5.50
2024-02-12T20:27:43.982Z,5.50
2024-02-12T20:30:13.007Z,5.40
2024-02-12T20:32:43.625Z,5.50
2024-02-12T20:35:16.207Z,5.50
2024-02-12T20:37:49.160Z,5.40
2024-02-12T20:40:20.101Z,5.40
2024-02-12T20:42:48.365Z,5.40
2024-02-12T20:45:18.759Z,5.40
2024-02-12T20:47:47.487Z,5.40
2024-02-12T20:50:16.026Z,5.30
2024-02-12T20:52:48.920Z,5.30
2024-02-12T20:55:17.260Z,5.30
2024-02-12T20:57:47.038Z,5.30
2024-02-12T21:00:19.328Z,5.20
2024-02-12T21:02:55.585Z,5.20
2024-02-12T21:05:24.871Z,5.20
2024-02-12T21:07:54.646Z,5.20
2024-02-12T21:10:27.438Z,5.20
2024-02-12T21:12:57.059Z,5.10
2024-02-12T21:15:25.699Z,5.10
2024-02-12T21:17:54.056Z,5.10
2024-02-12T21:20:22.842Z,5.10
2024-02-12T21:22:51.042Z,5.10
2024-02-12T21:25:20.913Z,5.10
2024-02-12T21:27:50.413Z,5.00
2024-02-12T21:30:21.577Z,5.00
2024-02-12T21:32:51.908Z,4.90
2024-02-12T21:35:21.543Z,4.90
2024-02-12T21:37:54.416Z,4.80
2024-02-12T21:40:27.075Z,4.70
2024-02-12T21:42:56.912Z,4.70
2024-02-12T21:45:29.116Z,4.60
2024-02-12T21:47:57.937Z,4.60
2024-02-12T21:50:26.469Z,4.60
2024-02-12T21:52:57.031Z,4.60
2024-02-12T21:55:27.408Z,4.60
2024-02-12T21:57:57.763Z,4.70
2024-02-12T22:00:26.116Z,4.70
2024-02-12T22:02:54.680Z,4.80
2024-02-12T22:06:01.603Z,4.80
2024-02-12T22:08:29.717Z,4.90
2024-02-12T22:10:59.530Z,5.00
2024-02-12T22:13:28.781Z,5.00
2024-02-12T22:15:57.540Z,5.10
2024-02-12T22:18:25.930Z,5.10
2024-02-12T22:20:54.188Z,5.10
2024-02-12T22:23:22.814Z,5.10
2024-02-12T22:25:51.034Z,5.10
2024-02-12T22:28:20.906Z,5.10
2024-02-12T22:30:49.564Z,5.10
2024-02-12T22:33:17.845Z,5.10
2024-02-12T22:35:46.851Z,5.00
2024-02-12T22:38:16.168Z,5.00
2024-02-12T22:40:45.839Z,5.00
2024-02-12T22:43:13.986Z,5.00
2024-02-12T22:45:43.774Z,5.00
2024-02-12T22:48:11.967Z,4.90
2024-02-12T22:50:42.155Z,4.80
2024-02-12T22:53:11.819Z,4.80
2024-02-12T22:55:40.206Z,4.80
2024-02-12T22:58:08.703Z,4.80
2024-02-12T23:00:42.406Z,4.70
2024-02-12T23:03:13.143Z,4.60
2024-02-12T23:05:42.829Z,4.60
2024-02-12T23:10:40.264Z,4.60
2024-02-12T23:13:11.114Z,4.70
2024-02-12T23:15:39.427Z,4.60
2024-02-12T23:18:09.133Z,4.50
2024-02-12T23:28:06.268Z,4.40
2024-02-12T23:30:35.004Z,4.40
2024-02-12T23:33:05.154Z,4.40
2024-02-12T23:35:33.652Z,4.30
2024-02-12T23:38:04.709Z,4.20
2024-02-12T23:40:32.907Z,4.20
2024-02-12T23:43:01.470Z,4.10
2024-02-12T23:45:29.609Z,4.10
2024-02-12T23:47:57.766Z,4.10
2024-02-12T23:50:26.142Z,4.10
2024-02-12T23:52:55.049Z,4.10
2024-02-12T23:55:24.585Z,4.10
2024-02-12T23:57:52.735Z,4.10
